createdAt,value
2019-06-10T00:01:16.779Z,0
2019-06-10T00:02:30.864Z,0
2019-06-10T00:03:42.026Z,0
2019-06-10T00:04:53.275Z,0
2019-06-10T00:06:11.493Z,0
2019-06-10T00:07:23.485Z,0
2019-06-10T00:08:35.566Z,0
2019-06-10T00:09:47.837Z,0
2019-06-10T00:10:58.567Z,0
2019-06-10T00:12:17.342Z,0
2019-06-10T00:13:28.353Z,0
2019-06-10T00:14:41.634Z,0
2019-06-10T00:15:53.877Z,0
2019-06-10T00:17:10.770Z,0
2019-06-10T00:18:50.835Z,4
2019-06-10T00:20:05.478Z,4
2019-06-10T00:21:18.777Z,4
2019-06-10T00:22:31.457Z,4
2019-06-10T00:23:43.652Z,4
2019-06-10T00:24:54.651Z,4
2019-06-10T00:26:12.378Z,4
2019-06-10T00:27:24.035Z,4
2019-06-10T00:28:35.960Z,4
2019-06-10T00:29:48.239Z,0
2019-06-10T00:31:01.108Z,0
2019-06-10T00:32:18.180Z,0
2019-06-10T00:33:30.862Z,4
2019-06-10T00:34:44.358Z,4
2019-06-10T00:35:56.349Z,4
2019-06-10T00:37:17.190Z,4
2019-06-10T00:38:28.920Z,4
2019-06-10T00:39:40.851Z,4
2019-06-10T00:40:53.672Z,4
2019-06-10T00:42:14.598Z,4
2019-06-10T00:43:26.218Z,4
2019-06-10T00:44:38.377Z,4
2019-06-10T00:45:51.301Z,4
2019-06-10T00:47:06.304Z,8
2019-06-10T00:48:36.183Z,4
2019-06-10T00:49:48.540Z,8
2019-06-10T00:51:01.271Z,8
2019-06-10T00:52:18.096Z,8
2019-06-10T00:53:31.473Z,8
2019-06-10T00:54:44.091Z,12
2019-06-10T00:55:56.247Z,8
2019-06-10T00:57:12.298Z,12
2019-06-10T00:58:24.166Z,12
2019-06-10T00:59:36.050Z,12
2019-06-10T01:00:48.468Z,12
2019-06-10T01:02:01.627Z,12
2019-06-10T01:03:20.877Z,12
2019-06-10T01:04:31.850Z,12
2019-06-10T01:05:44.436Z,16
2019-06-10T01:06:56.368Z,16
2019-06-10T01:08:13.791Z,16
2019-06-10T01:09:26.765Z,20
2019-06-10T01:10:38.945Z,20
2019-06-10T01:11:54.207Z,20
2019-06-10T01:13:06.953Z,20
2019-06-10T01:14:24.070Z,20
2019-06-10T01:15:35.968Z,24
2019-06-10T01:16:50.492Z,28
2019-06-10T01:18:01.348Z,28
2019-06-10T01:19:15.721Z,28
2019-06-10T01:20:28.173Z,28
2019-06-10T01:21:41.521Z,28
2019-06-10T01:22:54.014Z,32
2019-06-10T01:24:07.394Z,32
2019-06-10T01:25:23.856Z,36
2019-06-10T01:26:35.867Z,36
2019-06-10T01:27:48.152Z,40
2019-06-10T01:29:00.955Z,40
2019-06-10T01:30:31.201Z,48
2019-06-10T01:31:41.932Z,52
2019-06-10T01:32:53.070Z,56
2019-06-10T01:34:03.219Z,64
2019-06-10T01:35:18.099Z,68
2019-06-10T01:36:31.185Z,72
2019-06-10T01:37:43.726Z,76
2019-06-10T01:38:55.852Z,80
2019-06-10T01:40:08.438Z,92
2019-06-10T01:41:26.122Z,96
2019-06-10T01:42:38.209Z,104
2019-06-10T01:43:51.063Z,116
2019-06-10T01:45:03.559Z,128
2019-06-10T01:46:21.095Z,136
2019-06-10T01:47:33.370Z,144
2019-06-10T01:48:54.633Z,156
2019-06-10T01:50:05.592Z,172
2019-06-10T01:51:23.910Z,188
2019-06-10T01:52:36.432Z,204
2019-06-10T01:53:50.995Z,220
2019-06-10T01:55:01.606Z,232
2019-06-10T01:56:15.777Z,244
2019-06-10T01:57:30.815Z,260
2019-06-10T01:58:43.075Z,268
2019-06-10T01:59:55.621Z,280
2019-06-10T02:01:06.303Z,296
2019-06-10T02:02:28.267Z,316
2019-06-10T02:03:43.976Z,332
2019-06-10T02:04:56.325Z,352
2019-06-10T02:06:08.869Z,368
2019-06-10T02:07:27.968Z,388
2019-06-10T02:08:41.741Z,404
2019-06-10T02:09:54.104Z,424
2019-06-10T02:11:06.024Z,436
2019-06-10T02:12:26.694Z,448
2019-06-10T02:13:40.919Z,468
2019-06-10T02:14:53.293Z,488
2019-06-10T02:16:05.742Z,508
2019-06-10T02:17:25.634Z,532
2019-06-10T02:18:36.885Z,548
2019-06-10T02:19:53.349Z,572
2019-06-10T02:21:05.814Z,592
2019-06-10T02:22:24.175Z,612
2019-06-10T02:23:36.339Z,628
2019-06-10T02:24:46.502Z,648
2019-06-10T02:26:01.028Z,672
2019-06-10T02:27:16.231Z,696
2019-06-10T02:28:31.608Z,708
2019-06-10T02:29:43.668Z,732
2019-06-10T02:31:05.518Z,748
2019-06-10T02:32:37.556Z,776
2019-06-10T02:33:54.685Z,800
2019-06-10T02:35:49.098Z,832
2019-06-10T02:37:04.621Z,856
2019-06-10T02:38:32.272Z,888
2019-06-10T02:39:53.909Z,928
2019-06-10T02:41:06.983Z,960
2019-06-10T02:42:35.710Z,988
2019-06-10T02:43:48.943Z,1016
2019-06-10T02:45:03.595Z,1048
2019-06-10T02:46:20.251Z,1076
2019-06-10T02:47:46.902Z,1108
2019-06-10T02:49:42.233Z,1148
2019-06-10T02:51:13.476Z,1200
2019-06-10T02:52:46.685Z,1240
2019-06-10T02:53:58.639Z,1280
2019-06-10T02:55:18.222Z,1344
2019-06-10T02:56:46.523Z,1408
2019-06-10T02:57:57.943Z,1464
2019-06-10T02:59:13.178Z,1536
2019-06-10T03:00:54.275Z,1624
2019-06-10T03:02:07.824Z,1640
2019-06-10T03:03:54.092Z,1704
2019-06-10T03:05:07.161Z,1732
2019-06-10T03:06:39.288Z,1796
2019-06-10T03:07:55.683Z,1828
2019-06-10T03:09:08.475Z,1808
2019-06-10T03:10:36.894Z,1872
2019-06-10T03:11:53.284Z,1876
2019-06-10T03:13:04.886Z,1868
2019-06-10T03:14:15.734Z,1852
2019-06-10T03:15:32.121Z,1892
2019-06-10T03:16:44.650Z,1944
2019-06-10T03:17:56.928Z,1944
2019-06-10T03:19:07.822Z,1956
2019-06-10T03:20:24.069Z,2016
2019-06-10T03:21:37.214Z,2072
2019-06-10T03:22:49.173Z,2084
2019-06-10T03:24:02.473Z,2096
2019-06-10T03:25:13.093Z,2088
2019-06-10T03:26:27.775Z,2168
2019-06-10T03:27:42.242Z,2200
2019-06-10T03:28:54.382Z,2092
2019-06-10T03:30:37.191Z,2060
2019-06-10T03:32:07.362Z,2176
2019-06-10T03:33:31.321Z,2296
2019-06-10T03:34:57.439Z,2440
2019-06-10T03:36:08.244Z,2540
2019-06-10T03:37:23.193Z,2732
2019-06-10T03:38:39.521Z,2912
2019-06-10T03:39:52.984Z,2972
2019-06-10T03:41:05.586Z,2944
2019-06-10T03:42:18.699Z,2944
2019-06-10T03:43:35.512Z,3024
2019-06-10T03:44:47.818Z,3132
2019-06-10T03:46:02.687Z,3160
2019-06-10T03:47:14.592Z,3196
2019-06-10T03:48:29.200Z,3236
2019-06-10T03:49:58.784Z,3300
2019-06-10T03:51:12.558Z,3380
2019-06-10T03:52:28.496Z,3508
2019-06-10T03:53:42.531Z,3536
2019-06-10T03:54:54.927Z,3460
2019-06-10T03:56:07.224Z,3416
2019-06-10T03:57:19.587Z,3460
2019-06-10T03:58:37.460Z,3668
2019-06-10T03:59:49.423Z,3896
2019-06-10T04:01:02.770Z,3836
2019-06-10T04:02:15.176Z,3652
2019-06-10T04:03:33.784Z,3868
2019-06-10T04:04:45.407Z,4084
2019-06-10T04:05:57.484Z,4344
2019-06-10T04:07:14.108Z,4372
2019-06-10T04:08:32.581Z,4372
2019-06-10T04:09:44.615Z,4352
2019-06-10T04:10:56.853Z,4380
2019-06-10T04:12:09.176Z,4408
2019-06-10T04:13:22.740Z,4424
2019-06-10T04:14:37.606Z,4456
2019-06-10T04:15:50.407Z,4544
2019-06-10T04:17:02.658Z,4532
2019-06-10T04:18:15.150Z,4568
2019-06-10T04:19:32.695Z,4544
2019-06-10T04:20:45.297Z,4572
2019-06-10T04:21:55.708Z,4608
2019-06-10T04:23:07.347Z,4584
2019-06-10T04:24:22.278Z,4492
2019-06-10T04:25:37.297Z,4524
2019-06-10T04:26:48.376Z,4920
2019-06-10T04:27:59.766Z,5076
2019-06-10T04:29:12.881Z,5184
2019-06-10T04:30:28.165Z,4940
2019-06-10T04:31:42.438Z,4972
2019-06-10T04:32:52.870Z,5204
2019-06-10T04:34:05.523Z,5244
2019-06-10T04:35:18.314Z,5264
2019-06-10T04:36:35.818Z,5200
2019-06-10T04:37:47.679Z,5316
2019-06-10T04:38:59.826Z,5384
2019-06-10T04:40:13.139Z,5344
2019-06-10T04:41:26.431Z,5512
2019-06-10T04:42:40.280Z,5648
2019-06-10T04:43:53.140Z,5756
2019-06-10T04:45:05.469Z,5708
2019-06-10T04:46:18.574Z,5520
2019-06-10T04:47:35.768Z,5796
2019-06-10T04:48:47.572Z,5664
2019-06-10T04:49:59.085Z,5552
2019-06-10T04:51:12.908Z,5676
2019-06-10T04:52:26.629Z,5436
2019-06-10T04:53:43.760Z,5304
2019-06-10T04:54:55.178Z,5400
2019-06-10T04:56:05.586Z,5476
2019-06-10T04:57:18.739Z,5680
2019-06-10T04:58:36.112Z,5788
2019-06-10T04:59:47.755Z,5916
2019-06-10T05:00:59.558Z,5792
2019-06-10T05:02:15.155Z,5772
2019-06-10T05:03:32.827Z,5852
2019-06-10T05:04:45.087Z,5936
2019-06-10T05:05:57.474Z,5928
2019-06-10T05:07:09.354Z,5808
2019-06-10T05:08:23.503Z,5720
2019-06-10T05:09:38.378Z,5880
2019-06-10T05:10:49.881Z,6032
2019-06-10T05:12:02.704Z,6132
2019-06-10T05:13:14.438Z,5720
2019-06-10T05:14:30.760Z,5740
2019-06-10T05:15:45.762Z,6264
2019-06-10T05:16:56.836Z,6420
2019-06-10T05:18:08.165Z,6344
2019-06-10T05:19:19.994Z,6408
2019-06-10T05:21:05.373Z,6316
2019-06-10T05:22:17.246Z,6240
2019-06-10T05:23:32.618Z,6540
2019-06-10T05:24:44.816Z,6352
2019-06-10T05:25:58.725Z,6372
2019-06-10T05:27:12.467Z,6156
2019-06-10T05:28:23.000Z,6164
2019-06-10T05:29:38.949Z,5812
2019-06-10T05:30:49.933Z,5432
2019-06-10T05:32:02.488Z,5320
2019-06-10T05:33:13.424Z,5260
2019-06-10T05:34:28.683Z,5244
2019-06-10T05:35:45.043Z,5468
2019-06-10T05:36:57.279Z,5492
2019-06-10T05:38:09.586Z,5556
2019-06-10T05:39:21.415Z,5668
2019-06-10T05:40:38.933Z,5704
2019-06-10T05:41:53.244Z,5564
2019-06-10T05:43:04.962Z,5276
2019-06-10T05:44:15.919Z,5088
2019-06-10T05:45:34.409Z,4940
2019-06-10T05:46:46.046Z,4984
2019-06-10T05:47:57.921Z,4880
2019-06-10T05:49:12.478Z,4680
2019-06-10T05:50:26.779Z,4608
2019-06-10T05:51:42.272Z,4664
2019-06-10T05:52:54.493Z,4772
2019-06-10T05:54:06.944Z,4984
2019-06-10T05:55:19.292Z,5224
2019-06-10T05:56:36.617Z,5504
2019-06-10T05:57:47.674Z,5660
2019-06-10T05:59:01.562Z,5788
2019-06-10T06:00:23.294Z,5940
2019-06-10T06:01:42.866Z,6108
2019-06-10T06:02:54.755Z,6296
2019-06-10T06:04:05.741Z,6364
2019-06-10T06:05:17.669Z,6512
2019-06-10T06:06:33.340Z,6328
2019-06-10T06:08:01.251Z,6584
2019-06-10T06:09:17.790Z,6628
2019-06-10T06:10:29.921Z,7040
2019-06-10T06:11:45.545Z,6880
2019-06-10T06:12:57.521Z,6508
2019-06-10T06:14:09.810Z,6292
2019-06-10T06:15:22.051Z,5988
2019-06-10T06:16:38.258Z,5740
2019-06-10T06:18:10.390Z,5368
2019-06-10T06:19:23.112Z,5220
2019-06-10T06:20:37.601Z,5228
2019-06-10T06:21:55.486Z,5356
2019-06-10T06:23:09.065Z,5500
2019-06-10T06:24:22.017Z,5836
2019-06-10T06:25:47.084Z,6000
2019-06-10T06:26:58.241Z,6768
2019-06-10T06:28:12.383Z,6852
2019-06-10T06:29:24.718Z,6800
2019-06-10T06:30:38.388Z,7168
2019-06-10T06:31:52.250Z,7444
2019-06-10T06:33:05.396Z,7732
2019-06-10T06:34:16.273Z,7952
2019-06-10T06:35:28.766Z,8192
2019-06-10T06:36:44.765Z,8328
2019-06-10T06:37:56.526Z,8752
2019-06-10T06:39:07.166Z,9128
2019-06-10T06:40:18.127Z,8816
2019-06-10T06:41:34.106Z,8480
2019-06-10T06:42:48.186Z,8416
2019-06-10T06:44:02.272Z,7980
2019-06-10T06:45:14.522Z,7928
2019-06-10T06:46:25.885Z,8136
2019-06-10T06:47:46.162Z,7800
2019-06-10T06:48:58.160Z,7592
2019-06-10T06:50:10.004Z,6888
2019-06-10T06:51:51.587Z,5720
2019-06-10T06:53:56.213Z,5688
2019-06-10T06:55:07.326Z,5700
2019-06-10T06:56:19.780Z,5984
2019-06-10T06:57:33.730Z,5736
2019-06-10T06:58:48.254Z,6044
2019-06-10T07:00:00.108Z,5740
2019-06-10T07:01:48.730Z,5304
2019-06-10T07:03:00.213Z,5228
2019-06-10T07:04:12.842Z,4396
2019-06-10T07:05:25.315Z,4468
2019-06-10T07:06:43.002Z,4368
2019-06-10T07:07:55.156Z,4224
2019-06-10T07:09:15.803Z,3520
2019-06-10T07:10:27.635Z,3532
2019-06-10T07:11:47.823Z,4104
2019-06-10T07:12:59.527Z,4028
2019-06-10T07:14:15.837Z,3868
2019-06-10T07:15:27.236Z,3688
2019-06-10T07:16:48.516Z,3660
2019-06-10T07:18:02.306Z,3520
2019-06-10T07:19:13.134Z,3612
2019-06-10T07:20:25.354Z,3324
2019-06-10T07:22:09.347Z,3604
2019-06-10T07:23:24.966Z,3540
2019-06-10T07:24:47.255Z,3488
2019-06-10T07:26:02.246Z,3496
2019-06-10T07:27:13.079Z,3488
2019-06-10T07:28:25.402Z,3484
2019-06-10T07:29:46.886Z,3476
2019-06-10T07:31:03.207Z,3464
2019-06-10T07:32:30.335Z,3456
2019-06-10T07:33:52.519Z,3448
2019-06-10T07:35:05.261Z,3452
2019-06-10T07:36:17.857Z,3452
2019-06-10T07:37:32.438Z,3452
2019-06-10T07:38:56.454Z,3460
2019-06-10T07:40:07.955Z,3464
2019-06-10T07:41:19.811Z,3468
2019-06-10T07:42:32.846Z,3472
2019-06-10T07:43:55.284Z,3480
2019-06-10T07:45:07.339Z,3480
2019-06-10T07:46:22.762Z,3488
2019-06-10T07:47:36.976Z,3496
2019-06-10T07:48:58.726Z,3504
2019-06-10T07:50:12.088Z,3508
2019-06-10T07:51:24.947Z,3520
2019-06-10T07:52:37.368Z,3524
2019-06-10T07:53:55.130Z,3532
2019-06-10T07:55:07.359Z,3536
2019-06-10T07:56:19.790Z,3548
2019-06-10T07:57:33.111Z,3556
2019-06-10T07:58:55.105Z,3560
2019-06-10T08:00:07.858Z,3572
2019-06-10T08:01:22.907Z,3580
2019-06-10T08:02:35.618Z,3588
2019-06-10T08:03:52.580Z,3600
2019-06-10T08:05:03.622Z,3608
2019-06-10T08:06:14.907Z,3620
2019-06-10T08:07:27.258Z,3632
2019-06-10T08:08:43.832Z,3640
2019-06-10T08:09:55.818Z,3648
2019-06-10T08:11:08.285Z,3664
2019-06-10T08:12:23.238Z,3680
2019-06-10T08:13:35.182Z,3684
2019-06-10T08:14:48.458Z,3696
2019-06-10T08:16:02.699Z,3708
2019-06-10T08:17:15.297Z,3724
2019-06-10T08:18:27.375Z,3736
2019-06-10T08:19:54.219Z,3748
2019-06-10T08:21:05.668Z,3764
2019-06-10T08:22:37.189Z,3784
2019-06-10T08:24:03.426Z,3804
2019-06-10T08:25:14.903Z,3812
2019-06-10T08:26:25.625Z,3828
2019-06-10T08:27:40.278Z,3844
2019-06-10T08:28:57.906Z,3860
2019-06-10T08:30:32.880Z,3888
2019-06-10T08:31:50.188Z,3908
2019-06-10T08:33:05.850Z,3932
2019-06-10T08:34:18.110Z,3948
2019-06-10T08:36:03.896Z,3976
2019-06-10T08:37:16.123Z,3984
2019-06-10T08:38:27.981Z,3996
2019-06-10T08:39:43.034Z,4012
2019-06-10T08:40:57.378Z,4028
2019-06-10T08:42:08.011Z,4044
2019-06-10T08:43:22.569Z,4068
2019-06-10T08:44:35.108Z,4084
2019-06-10T08:45:52.881Z,4104
2019-06-10T08:47:05.476Z,4124
2019-06-10T08:48:18.002Z,4148
2019-06-10T08:49:32.692Z,4164
2019-06-10T08:50:50.090Z,4184
2019-06-10T08:52:02.658Z,4204
2019-06-10T08:53:25.284Z,4224
2019-06-10T08:54:38.526Z,4236
2019-06-10T08:55:58.278Z,4276
2019-06-10T08:57:12.623Z,4288
2019-06-10T08:58:24.946Z,4304
2019-06-10T08:59:38.434Z,4320
2019-06-10T09:00:58.442Z,4340
2019-06-10T09:02:12.304Z,4364
2019-06-10T09:03:23.307Z,4392
2019-06-10T09:04:39.164Z,4412
2019-06-10T09:06:02.630Z,4432
2019-06-10T09:07:15.007Z,4444
2019-06-10T09:08:25.939Z,4448
2019-06-10T09:09:39.206Z,4464
2019-06-10T09:11:02.080Z,4476
2019-06-10T09:12:35.934Z,4512
2019-06-10T09:13:55.761Z,4528
2019-06-10T09:15:08.430Z,4564
2019-06-10T09:16:27.770Z,4584
2019-06-10T09:17:46.286Z,4596
2019-06-10T09:19:04.733Z,4616
2019-06-10T09:20:15.451Z,4644
2019-06-10T09:21:27.146Z,4684
2019-06-10T09:22:45.284Z,4700
2019-06-10T09:24:22.237Z,4768
2019-06-10T09:25:35.668Z,4844
2019-06-10T09:26:57.429Z,4980
2019-06-10T09:28:12.700Z,5204
2019-06-10T09:29:24.676Z,5356
2019-06-10T09:30:35.872Z,5340
2019-06-10T09:31:58.628Z,4940
2019-06-10T09:33:12.961Z,5184
2019-06-10T09:34:26.123Z,4908
2019-06-10T09:35:37.162Z,4932
2019-06-10T09:37:03.501Z,4972
2019-06-10T09:38:16.724Z,5028
2019-06-10T09:39:27.844Z,5124
2019-06-10T09:40:45.383Z,5308
2019-06-10T09:42:17.008Z,5596
2019-06-10T09:43:29.452Z,5520
2019-06-10T09:44:46.796Z,5084
2019-06-10T09:46:06.095Z,5104
2019-06-10T09:47:19.309Z,5140
2019-06-10T09:48:30.363Z,5164
2019-06-10T09:49:46.018Z,5200
2019-06-10T09:51:07.335Z,5248
2019-06-10T09:52:18.394Z,5352
2019-06-10T09:54:06.481Z,5600
2019-06-10T09:55:17.695Z,5988
2019-06-10T09:56:32.985Z,6232
2019-06-10T09:57:49.364Z,6016
2019-06-10T09:59:08.590Z,6072
2019-06-10T10:00:22.781Z,6348
2019-06-10T10:01:37.531Z,6916
2019-06-10T10:03:00.372Z,7504
2019-06-10T10:04:14.753Z,7664
2019-06-10T10:05:27.492Z,7812
2019-06-10T10:06:41.422Z,7388
2019-06-10T10:08:02.152Z,7968
2019-06-10T10:09:12.093Z,8156
2019-06-10T10:10:23.555Z,7772
2019-06-10T10:11:37.195Z,6944
2019-06-10T10:13:02.546Z,6832
2019-06-10T10:14:22.950Z,6876
2019-06-10T10:15:39.451Z,6720
2019-06-10T10:17:06.733Z,6424
2019-06-10T10:18:18.046Z,6276
2019-06-10T10:19:30.274Z,6100
2019-06-10T10:20:44.585Z,5960
2019-06-10T10:22:05.486Z,5648
2019-06-10T10:23:22.653Z,5504
2019-06-10T10:24:34.015Z,5488
2019-06-10T10:25:49.912Z,5476
2019-06-10T10:27:15.918Z,5496
2019-06-10T10:28:33.365Z,5640
2019-06-10T10:29:48.806Z,5876
2019-06-10T10:31:08.592Z,5840
2019-06-10T10:32:23.143Z,6044
2019-06-10T10:33:38.216Z,6328
2019-06-10T10:34:58.649Z,5792
2019-06-10T10:36:13.480Z,6004
2019-06-10T10:37:25.358Z,6080
2019-06-10T10:38:39.163Z,6044
2019-06-10T10:39:56.496Z,6000
2019-06-10T10:41:09.486Z,6056
2019-06-10T10:42:23.582Z,6208
2019-06-10T10:44:02.886Z,6384
2019-06-10T10:45:15.641Z,6424
2019-06-10T10:46:28.002Z,6140
2019-06-10T10:47:41.306Z,5984
2019-06-10T10:48:56.614Z,5956
2019-06-10T10:50:07.670Z,6156
2019-06-10T10:51:22.870Z,6844
2019-06-10T10:52:35.379Z,7608
2019-06-10T10:54:29.213Z,7040
2019-06-10T10:55:47.662Z,6156
2019-06-10T10:57:07.474Z,6140
2019-06-10T10:58:19.990Z,6240
2019-06-10T10:59:33.175Z,6348
2019-06-10T11:00:50.258Z,6172
2019-06-10T11:02:07.210Z,6128
2019-06-10T11:03:18.246Z,6176
2019-06-10T11:04:32.770Z,6552
2019-06-10T11:05:45.904Z,7428
2019-06-10T11:07:06.034Z,6276
2019-06-10T11:08:18.995Z,6320
2019-06-10T11:09:33.014Z,6404
2019-06-10T11:10:49.181Z,6624
2019-06-10T11:12:08.225Z,6880
2019-06-10T11:13:17.917Z,7160
2019-06-10T11:14:30.277Z,7408
2019-06-10T11:15:43.296Z,7752
2019-06-10T11:17:02.849Z,8368
2019-06-10T11:18:15.146Z,9036
2019-06-10T11:19:26.991Z,9364
2019-06-10T11:20:38.483Z,9348
2019-06-10T11:21:51.494Z,8756
2019-06-10T11:23:05.271Z,7992
2019-06-10T11:24:41.020Z,8252
2019-06-10T11:25:59.888Z,9048
2019-06-10T11:27:12.698Z,10160
2019-06-10T11:28:25.213Z,11456
2019-06-10T11:29:37.639Z,12436
2019-06-10T11:30:52.485Z,12428
2019-06-10T11:32:07.899Z,12652
2019-06-10T11:33:18.345Z,13184
2019-06-10T11:34:30.410Z,13944
2019-06-10T11:35:45.200Z,15392
2019-06-10T11:37:02.274Z,41696
2019-06-10T11:38:12.776Z,88608
2019-06-10T11:39:24.973Z,96160
2019-06-10T11:40:36.647Z,96480
2019-06-10T11:41:48.451Z,98240
2019-06-10T11:43:06.457Z,100128
2019-06-10T11:44:16.404Z,98816
2019-06-10T11:45:27.106Z,96544
2019-06-10T11:46:39.706Z,100256
2019-06-10T11:47:54.878Z,102944
2019-06-10T11:49:08.778Z,97120
2019-06-10T11:50:22.618Z,101280
2019-06-10T11:51:33.191Z,99840
2019-06-10T11:52:45.798Z,94176
2019-06-10T11:54:06.075Z,98016
2019-06-10T11:55:28.476Z,97696
2019-06-10T11:56:42.136Z,97024
2019-06-10T11:57:57.559Z,93184
2019-06-10T11:59:18.350Z,97152
2019-06-10T12:00:33.033Z,95232
2019-06-10T12:01:45.144Z,95232
2019-06-10T12:03:05.977Z,93344
2019-06-10T12:04:17.751Z,94656
2019-06-10T12:05:32.604Z,94592
2019-06-10T12:06:45.066Z,95808
2019-06-10T12:08:04.095Z,94656
2019-06-10T12:09:16.209Z,96768
2019-06-10T12:10:28.219Z,96608
2019-06-10T12:11:43.659Z,86272
2019-06-10T12:13:00.193Z,86528
2019-06-10T12:14:17.698Z,93664
2019-06-10T12:18:22.699Z,38304
2019-06-10T12:19:36.398Z,59840
2019-06-10T12:20:47.605Z,99168
2019-06-10T12:22:10.089Z,33760
2019-06-10T12:23:22.116Z,18528
2019-06-10T12:24:35.362Z,37888
2019-06-10T12:25:52.901Z,20640
2019-06-10T12:27:10.016Z,23232
2019-06-10T12:28:20.974Z,43136
2019-06-10T12:29:30.807Z,28128
2019-06-10T12:30:42.316Z,29056
2019-06-10T12:31:57.688Z,25664
2019-06-10T12:33:25.285Z,21024
2019-06-10T12:34:38.125Z,18720
2019-06-10T12:35:49.516Z,17376
2019-06-10T12:37:23.668Z,15976
2019-06-10T12:38:35.932Z,15268
2019-06-10T12:39:47.104Z,14504
2019-06-10T12:41:11.003Z,13808
2019-06-10T12:42:24.916Z,14104
2019-06-10T12:43:37.579Z,14940
2019-06-10T12:44:49.981Z,16032
2019-06-10T12:46:07.738Z,16992
2019-06-10T12:47:22.659Z,17120
2019-06-10T12:48:36.414Z,17216
2019-06-10T12:49:47.623Z,17248
2019-06-10T12:51:13.388Z,17760
2019-06-10T12:52:25.395Z,18912
2019-06-10T12:53:37.496Z,20160
2019-06-10T12:54:49.551Z,20736
2019-06-10T12:56:14.845Z,20256
2019-06-10T12:57:27.752Z,19008
2019-06-10T12:58:43.127Z,17056
2019-06-10T12:59:54.731Z,16188
2019-06-10T13:01:10.570Z,18016
2019-06-10T13:02:37.090Z,66304
2019-06-10T13:03:48.629Z,22336
2019-06-10T13:05:07.395Z,15404
2019-06-10T13:06:20.261Z,17984
2019-06-10T13:07:32.459Z,16608
2019-06-10T13:08:46.145Z,15344
2019-06-10T13:09:57.965Z,14484
2019-06-10T13:11:13.199Z,14944
2019-06-10T13:12:25.429Z,20224
2019-06-10T13:13:37.591Z,13160
2019-06-10T13:14:52.048Z,12388
2019-06-10T13:16:13.956Z,13184
2019-06-10T13:17:24.291Z,14200
2019-06-10T13:18:34.086Z,15076
2019-06-10T13:19:45.691Z,15756
2019-06-10T13:21:09.895Z,15608
2019-06-10T13:22:27.854Z,15588
2019-06-10T13:23:43.095Z,16864
2019-06-10T13:24:56.455Z,19712
2019-06-10T13:26:22.977Z,21568
2019-06-10T13:27:34.351Z,23968
2019-06-10T13:28:46.715Z,22144
2019-06-10T13:29:59.605Z,20384
2019-06-10T13:31:16.539Z,16928
2019-06-10T13:32:26.499Z,15152
2019-06-10T13:33:37.995Z,14208
2019-06-10T13:34:52.611Z,14456
2019-06-10T13:36:09.089Z,15388
2019-06-10T13:37:22.759Z,16608
2019-06-10T13:38:35.519Z,18016
2019-06-10T13:39:47.822Z,19136
2019-06-10T13:41:02.797Z,21440
2019-06-10T13:42:19.139Z,27744
2019-06-10T13:43:33.029Z,33472
2019-06-10T13:44:45.195Z,30176
2019-06-10T13:45:55.800Z,41568
2019-06-10T13:47:16.994Z,53184
2019-06-10T13:48:32.061Z,31296
2019-06-10T13:49:42.809Z,30016
2019-06-10T13:50:55.178Z,128160
2019-06-10T13:52:18.998Z,116480
2019-06-10T13:53:30.858Z,32256
2019-06-10T13:54:41.964Z,91168
2019-06-10T13:56:45.637Z,102272
2019-06-10T13:57:59.512Z,95232
2019-06-10T13:59:19.135Z,34176
2019-06-10T14:00:53.536Z,30592
2019-06-10T14:02:11.878Z,26720
2019-06-10T14:03:25.375Z,24480
2019-06-10T14:04:38.188Z,26272
2019-06-10T14:05:57.584Z,24480
2019-06-10T14:07:26.169Z,24000
2019-06-10T14:08:37.393Z,27904
2019-06-10T14:09:47.079Z,40032
2019-06-10T14:10:58.949Z,100864
2019-06-10T14:12:23.100Z,38432
2019-06-10T14:13:35.077Z,78304
2019-06-10T14:14:47.373Z,29952
2019-06-10T14:16:01.287Z,39808
2019-06-10T14:17:22.690Z,40704
2019-06-10T14:18:35.091Z,91712
2019-06-10T14:19:45.765Z,100192
2019-06-10T14:20:58.087Z,53664
2019-06-10T14:22:22.630Z,25472
2019-06-10T14:23:36.100Z,24416
2019-06-10T14:24:46.954Z,24448
2019-06-10T14:25:59.561Z,47552
2019-06-10T14:27:24.563Z,26208
2019-06-10T14:28:49.253Z,39744
2019-06-10T14:30:02.690Z,81824
2019-06-10T14:31:53.021Z,66336
2019-06-10T14:33:07.406Z,100896
2019-06-10T14:34:24.922Z,56224
2019-06-10T14:35:35.594Z,28448
2019-06-10T14:36:47.827Z,26848
2019-06-10T14:38:03.075Z,25696
2019-06-10T14:39:18.496Z,25568
2019-06-10T14:40:34.795Z,25056
2019-06-10T14:41:45.514Z,25760
2019-06-10T14:42:57.290Z,30624
2019-06-10T14:44:08.580Z,47776
2019-06-10T14:45:25.618Z,47040
2019-06-10T14:46:37.716Z,38336
2019-06-10T14:47:50.404Z,30272
2019-06-10T14:49:04.785Z,34560
2019-06-10T14:50:19.840Z,33248
2019-06-10T14:51:32.547Z,27360
2019-06-10T14:52:45.171Z,47872
2019-06-10T14:53:55.132Z,44064
2019-06-10T14:55:07.978Z,69216
2019-06-10T14:56:28.321Z,52224
2019-06-10T14:57:42.544Z,47520
2019-06-10T14:58:52.900Z,75488
2019-06-10T15:00:05.616Z,54688
2019-06-10T15:01:29.441Z,51008
2019-06-10T15:02:42.915Z,65920
2019-06-10T15:03:54.768Z,63104
2019-06-10T15:05:07.503Z,59712
2019-06-10T15:06:19.955Z,66016
2019-06-10T15:07:33.028Z,65184
2019-06-10T15:08:45.294Z,63264
2019-06-10T15:09:57.455Z,65472
2019-06-10T15:11:07.559Z,70048
2019-06-10T15:12:22.749Z,77984
2019-06-10T15:13:35.117Z,80160
2019-06-10T15:14:47.519Z,78592
2019-06-10T15:16:04.262Z,79168
2019-06-10T15:17:18.700Z,76416
2019-06-10T15:18:32.790Z,77920
2019-06-10T15:19:44.978Z,82176
2019-06-10T15:20:58.085Z,83456
2019-06-10T15:22:12.593Z,80416
2019-06-10T15:23:28.164Z,91488
2019-06-10T15:24:42.735Z,88224
2019-06-10T15:26:02.738Z,89824
2019-06-10T15:27:36.141Z,95136
2019-06-10T15:28:47.330Z,95264
2019-06-10T15:29:59.597Z,96064
2019-06-10T15:31:23.977Z,104032
2019-06-10T15:32:42.754Z,105760
2019-06-10T15:33:54.968Z,49344
2019-06-10T15:35:05.827Z,26816
2019-06-10T15:36:17.649Z,30368
2019-06-10T15:37:35.475Z,38880
2019-06-10T15:38:46.546Z,40800
2019-06-10T15:39:57.623Z,51872
2019-06-10T15:41:07.579Z,71648
2019-06-10T15:42:27.297Z,50688
2019-06-10T15:43:37.928Z,48640
2019-06-10T15:45:02.430Z,35488
2019-06-10T15:46:16.239Z,45056
2019-06-10T15:47:33.703Z,80224
2019-06-10T15:48:45.466Z,27840
2019-06-10T15:49:57.350Z,32192
2019-06-10T15:51:07.942Z,94624
2019-06-10T15:52:27.572Z,48160
2019-06-10T15:53:42.615Z,89856
2019-06-10T15:54:55.001Z,92832
2019-06-10T15:56:58.171Z,87008
2019-06-10T15:58:12.489Z,89824
2019-06-10T15:59:26.262Z,91232
2019-06-10T16:00:38.955Z,92480
2019-06-10T16:01:50.282Z,80544
2019-06-10T16:03:02.458Z,61344
2019-06-10T16:04:17.584Z,76288
2019-06-10T16:05:34.683Z,43328
2019-06-10T16:06:47.106Z,45824
2019-06-10T16:07:57.839Z,36544
2019-06-10T16:09:12.492Z,47264
2019-06-10T16:10:35.081Z,81920
2019-06-10T16:11:48.584Z,84224
2019-06-10T16:13:03.367Z,78208
2019-06-10T16:14:14.637Z,78688
2019-06-10T16:15:33.027Z,77312
2019-06-10T16:16:45.558Z,65344
2019-06-10T16:17:58.031Z,67360
2019-06-10T16:19:12.832Z,36128
2019-06-10T16:20:26.528Z,56992
2019-06-10T16:21:36.490Z,65216
2019-06-10T16:22:47.424Z,67904
2019-06-10T16:24:02.722Z,72096
2019-06-10T16:25:15.893Z,72480
2019-06-10T16:26:31.252Z,74272
2019-06-10T16:27:59.025Z,73056
2019-06-10T16:29:12.245Z,73184
2019-06-10T16:30:26.037Z,74784
2019-06-10T16:31:36.121Z,73856
2019-06-10T16:32:48.927Z,71168
2019-06-10T16:34:04.118Z,71168
2019-06-10T16:35:16.669Z,70720
2019-06-10T16:36:34.463Z,66336
2019-06-10T16:37:46.996Z,65504
2019-06-10T16:38:57.683Z,67584
2019-06-10T16:40:08.169Z,68896
2019-06-10T16:41:22.053Z,65856
2019-06-10T16:42:37.050Z,63488
2019-06-10T16:43:47.704Z,65024
2019-06-10T16:45:02.346Z,67904
2019-06-10T16:46:12.514Z,65312
2019-06-10T16:47:29.638Z,19296
2019-06-10T16:48:43.388Z,15056
2019-06-10T16:49:54.704Z,29856
2019-06-10T16:51:05.796Z,56832